Terminal Aerodrome Forecast
Issued by NWS Wilmington, OH

Current Version | Previous Version | Text Only | Print | Product List | Glossary On
Versions: 1 2 3 4 5 6 7 8 9 10 11 12 13 14
000 FTUS41 KILN 291738 TAFDAY TAF KDAY 291738Z 2918/3018 01008KT P6SM FEW050 FM292300 VRB04KT P6SM SKC FM301500 20005KT P6SM FEW040 FEW250=

USA.gov is the U.S. government's official web portal to all federal, state and local government web resources and services.